Time;durP1;ratioP1;P1;durP2;ratioP2;P2;SDS_P1;SDS_P2;PMS_P1;PMS_P2;Temp;Humidity;BMP_temperature;BMP_pressure;BME280_temperature;BME280_humidity;BME280_pressure;Samples;Min_cycle;Max_cycle;Signal;HPM_P1;HPM_P2
2022/05/21 00:03:13;;;;;;;7.97;2.28;;;;;;;13.96;57.31;100319.00;10383473;28;20135;-63
2022/05/21 00:08:15;;;;;;;6.10;2.20;;;;;;;13.84;57.58;100318.00;10382835;28;20085;-63
2022/05/21 00:13:17;;;;;;;4.07;2.00;;;;;;;13.82;57.67;100326.97;10382807;28;20076;-63
2022/05/21 00:18:19;;;;;;;5.32;2.20;;;;;;;13.58;58.42;100332.03;10384639;28;20081;-63
2022/05/21 00:23:23;;;;;;;9.02;2.13;;;;;;;13.62;58.68;100341.41;10389931;28;20132;-63
2022/05/21 00:28:27;;;;;;;4.38;2.28;;;;;;;13.43;59.06;100340.94;10389788;28;20093;-63
2022/05/21 00:33:29;;;;;;;4.97;2.20;;;;;;;13.39;59.24;100342.88;10390527;28;20088;-64
2022/05/21 00:38:32;;;;;;;7.35;2.60;;;;;;;13.32;59.35;100348.63;10389606;28;20713;-65
2022/05/21 00:43:47;;;;;;;6.25;2.40;;;;;;;13.23;59.58;100350.06;10390459;28;20049;-65
2022/05/21 00:49:03;;;;;;;3.78;2.13;;;;;;;13.25;59.69;100358.69;10388565;28;20068;-63
2022/05/21 00:54:07;;;;;;;5.22;2.50;;;;;;;13.17;60.13;100365.38;10389083;28;20083;-63
2022/05/21 01:04:31;;;;;;;8.57;2.90;;;;;;;13.00;60.68;100371.69;10389595;28;20077;-65
2022/05/21 01:09:34;;;;;;;6.75;2.67;;;;;;;13.06;60.68;100379.19;10388887;28;20319;-63
2022/05/21 01:14:37;;;;;;;5.43;2.85;;;;;;;12.94;60.69;100382.59;10389407;28;20050;-63
2022/05/21 01:19:57;;;;;;;5.65;3.08;;;;;;;12.83;60.75;100374.53;10387073;28;20144;-63
2022/05/21 01:24:59;;;;;;;5.97;3.50;;;;;;;12.81;60.25;100379.00;10388236;28;20318;-63
2022/05/21 01:30:04;;;;;;;7.35;3.45;;;;;;;12.75;60.05;100376.78;10385999;28;20124;-64
2022/05/21 01:35:06;;;;;;;5.10;3.30;;;;;;;12.62;60.35;100383.72;10388008;28;20565;-64
2022/05/21 01:40:10;;;;;;;6.63;3.50;;;;;;;12.61;60.13;100398.63;10385706;28;20057;-64
2022/05/21 01:45:12;;;;;;;6.07;3.10;;;;;;;12.62;60.48;100391.59;10387486;28;20151;-64
2022/05/21 01:50:13;;;;;;;5.80;3.80;;;;;;;12.58;60.48;100409.28;10387432;28;20612;-64
2022/05/21 01:55:15;;;;;;;6.70;3.63;;;;;;;12.45;60.89;100408.34;10385571;28;20206;-64
2022/05/21 02:00:18;;;;;;;7.13;3.80;;;;;;;12.42;61.02;100403.28;10386347;28;20128;-63
2022/05/21 02:05:20;;;;;;;7.30;3.72;;;;;;;12.31;61.52;100408.34;10392140;28;20041;-65
2022/05/21 02:10:22;;;;;;;10.55;4.00;;;;;;;12.21;61.58;100409.78;10395034;28;20419;-64
2022/05/21 02:15:24;;;;;;;7.15;4.10;;;;;;;12.18;61.93;100419.59;10376461;28;20136;-63
2022/05/21 02:20:26;;;;;;;6.63;4.70;;;;;;;12.09;62.06;100419.19;10394775;28;20045;-63
2022/05/21 02:25:28;;;;;;;7.30;4.25;;;;;;;12.04;62.25;100423.88;10393139;28;20151;-64
2022/05/21 02:30:29;;;;;;;9.00;4.72;;;;;;;12.09;62.36;100420.97;10392853;28;20137;-63
2022/05/21 02:35:31;;;;;;;10.65;4.78;;;;;;;12.12;62.40;100423.41;10391152;28;20049;-63
2022/05/21 02:40:33;;;;;;;8.18;5.13;;;;;;;12.04;62.38;100426.50;10392551;28;20068;-63
2022/05/21 02:45:35;;;;;;;9.00;4.50;;;;;;;11.94;62.86;100425.34;10393038;28;20057;-63
2022/05/21 02:50:37;;;;;;;8.05;4.72;;;;;;;11.88;63.11;100416.97;10392908;28;20135;-63
2022/05/21 02:55:39;;;;;;;6.63;4.75;;;;;;;11.74;63.10;100414.28;10390864;28;20176;-64
2022/05/21 03:00:43;;;;;;;7.45;5.30;;;;;;;11.77;63.11;100409.72;10392251;28;20135;-63
2022/05/21 03:05:44;;;;;;;7.18;5.35;;;;;;;11.81;62.92;100410.38;10384532;28;20088;-65
2022/05/21 03:10:46;;;;;;;7.63;5.28;;;;;;;11.65;63.06;100406.94;10385145;28;20132;-64
2022/05/21 03:15:49;;;;;;;8.07;5.30;;;;;;;11.64;63.17;100407.88;10384390;28;20191;-64
2022/05/21 03:20:51;;;;;;;8.50;5.53;;;;;;;11.63;63.44;100412.28;10384516;28;20127;-63
2022/05/21 03:25:53;;;;;;;9.00;4.72;;;;;;;11.60;63.50;100412.44;10383749;28;20046;-64
2022/05/21 03:30:55;;;;;;;8.90;4.93;;;;;;;11.61;63.37;100408.03;10384961;28;20077;-64
2022/05/21 03:35:56;;;;;;;8.57;5.22;;;;;;;11.64;63.04;100413.13;10382540;28;20144;-64
2022/05/21 03:40:58;;;;;;;9.45;4.93;;;;;;;11.52;63.35;100413.81;10367075;28;20466;-63
2022/05/21 03:46:00;;;;;;;7.57;4.68;;;;;;;11.59;63.31;100415.16;10384043;28;20132;-63
2022/05/21 03:51:02;;;;;;;10.27;4.80;;;;;;;11.60;63.11;100422.09;10383923;28;20442;-63
2022/05/21 03:56:05;;;;;;;8.07;4.65;;;;;;;11.54;63.03;100422.44;10389658;28;20514;-64
2022/05/21 04:01:07;;;;;;;6.35;4.10;;;;;;;11.65;62.88;100434.00;10391819;28;20583;-63
2022/05/21 04:06:11;;;;;;;5.78;3.72;;;;;;;11.81;62.42;100434.81;10391972;28;20143;-63
2022/05/21 04:11:12;;;;;;;5.70;3.70;;;;;;;11.83;62.40;100440.81;10393175;28;20076;-63
2022/05/21 04:16:14;;;;;;;5.47;3.90;;;;;;;11.99;62.06;100444.25;10391169;28;20085;-63
2022/05/21 04:21:16;;;;;;;7.38;3.90;;;;;;;12.57;61.05;100436.47;10390542;28;20052;-63
2022/05/21 04:26:18;;;;;;;8.25;3.50;;;;;;;13.85;58.01;100432.75;10390483;28;20128;-63
2022/05/21 04:31:19;;;;;;;5.30;3.78;;;;;;;14.53;55.95;100434.28;10392052;28;20100;-64
2022/05/21 04:36:22;;;;;;;5.60;2.78;;;;;;;15.92;53.07;100432.22;10387082;28;20427;-64
2022/05/21 04:41:25;;;;;;;6.40;2.80;;;;;;;17.59;49.35;100422.72;10391632;28;20045;-65
2022/05/21 04:46:27;;;;;;;4.40;2.90;;;;;;;20.10;43.92;100422.94;10390417;28;20041;-63
2022/05/21 04:51:30;;;;;;;5.10;2.55;;;;;;;21.41;41.01;100409.56;10388837;28;20520;-64
2022/05/21 04:56:34;;;;;;;5.13;2.40;;;;;;;22.86;38.02;100408.19;10389571;28;20691;-63
2022/05/21 05:01:41;;;;;;;7.32;2.10;;;;;;;23.65;36.61;100408.69;10389158;28;20045;-64
2022/05/21 05:06:43;;;;;;;6.32;2.08;;;;;;;24.90;34.47;100405.50;10389280;28;20037;-64
2022/05/21 05:11:46;;;;;;;5.97;2.10;;;;;;;25.32;32.89;100403.34;10390293;28;20057;-64
2022/05/21 05:16:47;;;;;;;4.00;1.90;;;;;;;25.43;32.63;100394.09;10383162;28;20158;-64
2022/05/21 05:21:52;;;;;;;7.78;1.85;;;;;;;25.83;32.01;100397.34;10389686;28;20045;-64
2022/05/21 05:26:54;;;;;;;6.88;1.95;;;;;;;23.41;34.58;100406.81;10387394;28;20080;-65
2022/05/21 05:31:56;;;;;;;4.55;1.50;;;;;;;20.34;39.20;100404.72;10389632;28;20128;-63
2022/05/21 05:36:58;;;;;;;5.00;1.70;;;;;;;18.57;42.49;100415.31;10387435;28;20100;-63
2022/05/21 05:42:04;;;;;;;6.43;1.60;;;;;;;17.22;45.63;100421.34;10387435;28;20150;-63
2022/05/21 05:47:06;;;;;;;4.15;1.58;;;;;;;16.48;47.26;100424.53;10387863;28;20068;-65
2022/05/21 05:52:11;;;;;;;5.68;1.80;;;;;;;15.97;48.50;100430.09;10387863;28;20078;-65
2022/05/21 05:57:13;;;;;;;6.97;1.60;;;;;;;15.60;49.44;100436.38;10385416;28;20126;-63
2022/05/21 06:07:42;;;;;;;5.05;1.80;;;;;;;15.29;51.39;100431.59;10385086;28;20045;-63
2022/05/21 06:12:44;;;;;;;4.85;1.50;;;;;;;15.42;51.17;100427.13;10387532;28;20076;-64
2022/05/21 06:17:46;;;;;;;6.47;1.80;;;;;;;15.48;50.78;100431.97;10374067;28;20300;-64
2022/05/21 06:22:48;;;;;;;5.47;1.80;;;;;;;15.45;50.66;100431.34;10373981;28;20556;-64
2022/05/21 06:27:52;;;;;;;6.03;1.60;;;;;;;15.34;51.27;100437.38;10376827;28;20045;-65
2022/05/21 06:32:56;;;;;;;5.07;1.80;;;;;;;15.49;51.09;100449.47;10379284;28;20567;-65
2022/05/21 06:37:58;;;;;;;7.93;2.55;;;;;;;15.88;50.86;100443.97;10375043;28;20235;-65
2022/05/21 06:43:00;;;;;;;5.13;1.60;;;;;;;16.02;50.00;100443.78;10368895;28;20140;-65
2022/05/21 06:48:08;;;;;;;6.55;1.80;;;;;;;16.60;48.46;100456.13;10373122;28;20057;-65
2022/05/21 06:53:10;;;;;;;7.00;1.70;;;;;;;16.57;48.51;100456.34;10375052;28;20584;-66
2022/05/21 06:58:12;;;;;;;7.72;1.95;;;;;;;16.69;48.13;100457.22;10372253;28;20176;-65
2022/05/21 07:03:13;;;;;;;11.68;2.08;;;;;;;16.81;47.66;100457.09;10377498;28;20409;-65
2022/05/21 07:08:19;;;;;;;5.50;1.65;;;;;;;17.12;47.37;100452.91;10380140;28;20049;-65
2022/05/21 07:18:38;;;;;;;9.00;2.10;;;;;;;17.45;46.88;100455.56;10403701;23;20061;-66
2022/05/21 07:23:39;;;;;;;8.25;1.85;;;;;;;18.06;45.65;100469.97;10378875;28;20167;-66
2022/05/21 07:28:42;;;;;;;7.20;1.80;;;;;;;17.99;45.20;100455.56;10376837;28;20053;-65
2022/05/21 07:33:44;;;;;;;5.45;1.90;;;;;;;18.51;44.44;100465.31;10380282;28;20628;-66
2022/05/21 07:38:46;;;;;;;6.80;2.03;;;;;;;19.28;43.92;100469.25;10396740;22;20128;-78
2022/05/21 07:43:48;;;;;;;4.57;1.60;;;;;;;21.28;40.67;100455.13;10419292;28;20140;-78
2022/05/21 07:48:51;;;;;;;5.00;1.70;;;;;;;21.17;38.80;100463.28;10424553;28;20057;-78
2022/05/21 07:53:54;;;;;;;4.28;1.65;;;;;;;19.60;41.23;100466.44;10421981;28;20057;-78
2022/05/21 07:58:57;;;;;;;7.93;1.80;;;;;;;19.06;42.27;100472.94;10427197;28;20602;-78
2022/05/21 08:03:59;;;;;;;5.70;1.88;;;;;;;18.74;43.33;100463.38;10422657;28;20675;-78
2022/05/21 08:09:02;;;;;;;6.93;1.92;;;;;;;19.98;41.76;100467.38;10427797;28;20068;-78
2022/05/21 08:14:05;;;;;;;5.68;1.75;;;;;;;19.71;41.81;100472.47;10427792;28;20088;-79
2022/05/21 08:19:09;;;;;;;5.95;1.77;;;;;;;20.68;40.49;100471.56;10425512;28;20108;-80
2022/05/21 08:29:36;;;;;;;4.78;1.48;;;;;;;20.68;39.62;100464.41;10415521;28;20060;-80
2022/05/21 08:34:39;;;;;;;5.07;1.52;;;;;;;20.24;40.54;100462.34;10423758;28;20055;-80
2022/05/21 08:39:41;;;;;;;6.43;1.58;;;;;;;21.04;39.51;100455.66;10429471;28;20045;-79
2022/05/21 08:44:48;;;;;;;4.85;1.52;;;;;;;21.47;38.16;100452.41;10433583;28;20078;-80
2022/05/21 08:49:53;;;;;;;6.32;1.70;;;;;;;21.12;38.62;100452.25;10432765;28;20077;-80
2022/05/21 08:54:58;;;;;;;6.15;1.90;;;;;;;21.93;37.73;100454.03;10430903;28;20053;-79
2022/05/21 09:00:06;;;;;;;5.15;1.60;;;;;;;21.53;37.57;100451.81;10430555;28;20184;-79
2022/05/21 09:05:17;;;;;;;8.23;1.90;;;;;;;22.41;36.23;100454.50;10433259;28;20057;-79
2022/05/21 09:10:38;;;;;;;6.72;1.73;;;;;;;23.23;35.15;100448.72;10432805;28;20132;-79
2022/05/21 09:21:09;;;;;;;5.82;1.60;;;;;;;22.17;35.89;100451.63;10437870;28;20049;-81
2022/05/21 09:26:11;;;;;;;5.60;1.80;;;;;;;22.38;35.78;100457.50;10437730;28;20552;-80
2022/05/21 09:31:23;;;;;;;5.93;1.88;;;;;;;23.08;33.99;100443.16;10442671;28;20118;-81
2022/05/21 09:36:33;;;;;;;5.28;1.60;;;;;;;22.43;35.00;100457.84;10438228;28;20445;-81
2022/05/21 09:41:36;;;;;;;7.75;2.20;;;;;;;21.45;37.23;100461.50;10439454;28;20049;-80
2022/05/21 09:46:41;;;;;;;5.28;1.60;;;;;;;21.58;36.93;100461.97;10426846;28;20076;-80
2022/05/21 09:51:54;;;;;;;7.72;1.80;;;;;;;21.80;36.23;100472.25;10426762;28;21808;-80
2022/05/21 09:56:57;;;;;;;5.28;1.75;;;;;;;21.92;37.02;100466.53;10429247;28;20081;-79
2022/05/21 10:02:22;;;;;;;5.43;1.70;;;;;;;21.29;37.64;100469.25;10424773;28;20052;-79
2022/05/21 10:13:01;;;;;;;5.18;1.92;;;;;;;20.96;38.48;100460.00;10427702;28;20127;-80
2022/05/21 10:18:09;;;;;;;5.25;1.58;;;;;;;21.11;37.57;100461.19;10430209;28;20084;-80
2022/05/21 10:23:40;;;;;;;5.50;1.75;;;;;;;20.92;38.34;100461.28;10428731;28;20044;-79
2022/05/21 10:29:22;;;;;;;6.65;1.85;;;;;;;20.71;38.13;100457.97;10429220;28;20110;-79
2022/05/21 10:35:01;;;;;;;6.72;2.00;;;;;;;20.27;38.93;100459.41;10421124;28;20144;-79
2022/05/21 10:40:29;;;;;;;5.43;1.65;;;;;;;19.94;39.54;100462.47;10426897;28;20057;-79
2022/05/21 10:45:46;;;;;;;7.85;1.73;;;;;;;19.91;40.22;100458.28;10421939;28;20142;-79
2022/05/21 10:51:06;;;;;;;6.22;1.70;;;;;;;20.03;39.89;100451.84;10427732;28;20052;-80
2022/05/21 10:56:29;;;;;;;4.38;1.30;;;;;;;20.38;39.56;100439.84;10427677;28;20041;-79
2022/05/21 11:01:57;;;;;;;7.03;2.10;;;;;;;21.08;38.36;100440.22;10427025;28;20742;-79
2022/05/21 11:07:28;;;;;;;5.28;1.60;;;;;;;21.84;36.67;100436.34;10425190;28;20116;-79
2022/05/21 11:12:46;;;;;;;5.97;1.60;;;;;;;22.00;36.69;100438.31;10424487;28;20071;-79
2022/05/21 11:17:59;;;;;;;6.13;1.58;;;;;;;21.95;35.90;100436.09;10422489;28;20045;-79
2022/05/21 11:23:10;;;;;;;6.30;1.58;;;;;;;21.46;35.77;100447.19;10422201;28;20056;-79
2022/05/21 11:28:35;;;;;;;6.40;1.50;;;;;;;21.33;37.20;100447.56;10425925;28;20089;-80
2022/05/21 11:39:02;;;;;;;5.28;1.60;;;;;;;21.43;37.04;100440.38;10429120;28;20041;-80
2022/05/21 11:49:36;;;;;;;5.88;1.80;;;;;;;21.04;37.41;100438.84;10425599;28;20076;-78
2022/05/21 11:54:47;;;;;;;5.28;1.50;;;;;;;21.37;35.72;100426.81;10422694;28;20130;-79
2022/05/21 11:59:53;;;;;;;4.80;1.42;;;;;;;21.72;36.02;100427.72;10423782;28;20082;-79
2022/05/21 12:05:00;;;;;;;5.40;1.40;;;;;;;21.65;35.40;100417.81;10428219;28;20076;-79
2022/05/21 12:10:08;;;;;;;6.22;1.60;;;;;;;21.91;35.41;100421.41;10428707;28;20052;-79
2022/05/21 12:15:18;;;;;;;4.93;1.38;;;;;;;22.21;34.63;100413.03;10432952;28;20483;-79
2022/05/21 12:20:46;;;;;;;3.83;1.42;;;;;;;22.36;34.33;100405.34;10430685;28;20057;-78
2022/05/21 12:25:56;;;;;;;8.38;1.40;;;;;;;22.23;32.67;100408.41;10434622;28;20083;-78
2022/05/21 12:31:00;;;;;;;3.83;1.30;;;;;;;22.14;33.93;100404.00;10433865;28;20060;-79
2022/05/21 12:36:44;;;;;;;3.58;1.30;;;;;;;22.27;34.02;100406.28;10431173;28;20064;-79
2022/05/21 12:41:50;;;;;;;5.68;1.65;;;;;;;22.22;33.44;100396.06;10430886;28;20053;-79
2022/05/21 12:46:52;;;;;;;3.72;1.30;;;;;;;22.35;33.11;100395.69;10433148;28;20122;-79
2022/05/21 12:51:54;;;;;;;4.20;1.48;;;;;;;22.47;33.38;100400.59;10434182;28;20111;-79
2022/05/21 12:56:57;;;;;;;4.22;1.40;;;;;;;22.57;32.91;100389.81;10430450;28;20122;-79
2022/05/21 13:02:11;;;;;;;6.38;1.50;;;;;;;22.62;32.31;100377.69;10428812;28;20080;-79
2022/05/21 13:07:21;;;;;;;4.57;1.20;;;;;;;22.92;31.98;100379.06;10432534;28;20045;-78
2022/05/21 13:12:36;;;;;;;5.70;1.40;;;;;;;22.75;31.95;100373.78;10428990;28;20136;-79
2022/05/21 13:18:04;;;;;;;4.60;1.60;;;;;;;22.68;31.71;100370.88;10429124;28;20130;-79
2022/05/21 13:23:15;;;;;;;5.68;1.63;;;;;;;22.89;32.11;100370.53;10405284;28;20096;-80
2022/05/21 13:28:23;;;;;;;6.57;1.90;;;;;;;22.69;31.67;100362.75;10433826;28;20126;-79
2022/05/21 13:33:37;;;;;;;5.80;1.40;;;;;;;22.64;31.16;100365.03;10436624;28;20119;-79
2022/05/21 13:38:43;;;;;;;4.35;1.67;;;;;;;22.74;31.93;100362.28;10422549;28;20071;-79
2022/05/21 13:43:49;;;;;;;3.20;1.40;;;;;;;22.70;31.43;100361.72;10431341;28;20103;-79
2022/05/21 13:48:57;;;;;;;6.22;1.58;;;;;;;22.90;31.63;100356.22;10429951;28;20482;-80
2022/05/21 13:54:00;;;;;;;5.20;1.80;;;;;;;22.67;31.81;100350.56;10428899;28;20052;-80
2022/05/21 13:59:14;;;;;;;6.32;1.63;;;;;;;22.60;30.91;100353.03;10429148;28;20580;-79
2022/05/21 14:04:39;;;;;;;5.70;1.70;;;;;;;23.21;31.01;100346.63;10431804;28;20080;-80
2022/05/21 14:09:45;;;;;;;5.57;1.67;;;;;;;23.10;30.95;100336.28;10446595;28;20136;-79
2022/05/21 14:14:49;;;;;;;4.95;1.38;;;;;;;22.95;30.65;100321.88;10429963;28;20056;-80
2022/05/21 14:20:30;;;;;;;4.97;1.45;;;;;;;23.10;30.11;100325.59;10421987;28;20080;-80
2022/05/21 14:25:37;;;;;;;4.72;1.50;;;;;;;23.40;30.80;100317.00;10424424;28;20049;-80
2022/05/21 14:30:44;;;;;;;4.65;1.40;;;;;;;23.61;29.16;100322.75;10431178;28;20057;-80
2022/05/21 14:35:48;;;;;;;5.53;1.38;;;;;;;23.80;29.56;100327.72;10430862;28;20453;-80
2022/05/21 14:40:56;;;;;;;4.90;1.58;;;;;;;24.06;29.78;100316.88;10429774;28;20573;-80
2022/05/21 14:46:00;;;;;;;6.65;1.33;;;;;;;24.12;30.06;100306.38;10430047;28;20595;-79
2022/05/21 14:56:28;;;;;;;5.50;1.33;;;;;;;24.32;29.08;100289.97;10431987;28;20080;-80
2022/05/21 15:01:30;;;;;;;4.18;1.38;;;;;;;24.40;29.41;100289.94;10445936;28;20701;-79
2022/05/21 15:06:35;;;;;;;5.40;1.60;;;;;;;24.47;29.24;100285.59;10428467;28;20048;-80
2022/05/21 15:11:38;;;;;;;3.60;1.63;;;;;;;24.54;28.80;100281.22;10431204;28;20064;-81
2022/05/21 15:16:40;;;;;;;4.78;1.35;;;;;;;24.10;29.17;100275.50;10432083;28;20118;-81
2022/05/21 15:21:45;;;;;;;4.55;1.45;;;;;;;24.12;29.53;100271.63;10432739;28;20049;-81
2022/05/21 15:26:47;;;;;;;4.55;1.40;;;;;;;24.25;29.46;100258.56;10435513;28;20053;-81
2022/05/21 15:31:48;;;;;;;7.20;1.48;;;;;;;23.66;29.71;100261.63;10434753;28;20068;-81
2022/05/21 15:36:50;;;;;;;5.43;1.48;;;;;;;23.50;29.76;100261.63;10431643;28;20060;-81
2022/05/21 15:41:52;;;;;;;6.63;1.80;;;;;;;23.65;29.39;100249.31;10433189;28;20080;-81
2022/05/21 15:46:54;;;;;;;7.15;1.50;;;;;;;23.34;28.91;100250.91;10434179;28;20053;-81
2022/05/21 15:51:56;;;;;;;5.35;1.40;;;;;;;22.97;30.52;100238.03;10438973;28;20088;-82
2022/05/21 15:56:58;;;;;;;4.68;1.50;;;;;;;22.60;30.88;100249.03;10443094;28;20568;-80
2022/05/21 16:02:00;;;;;;;5.30;1.50;;;;;;;22.41;30.17;100251.94;10441704;28;20126;-80
2022/05/21 16:07:02;;;;;;;8.90;1.80;;;;;;;21.79;32.24;100233.56;10434189;28;20056;-80
2022/05/21 16:12:13;;;;;;;8.30;1.80;;;;;;;21.39;33.40;100236.78;10436860;28;20099;-80
2022/05/21 16:17:19;;;;;;;6.03;1.50;;;;;;;21.47;33.18;100233.34;10437747;28;20080;-80
2022/05/21 16:22:23;;;;;;;7.57;1.88;;;;;;;21.66;34.29;100235.81;10431867;28;20570;-79
2022/05/21 16:27:32;;;;;;;9.77;1.95;;;;;;;21.75;33.23;100224.22;10437688;28;20048;-80
2022/05/21 16:32:34;;;;;;;7.13;1.67;;;;;;;21.96;34.76;100232.69;10437149;28;20111;-79
2022/05/21 16:37:38;;;;;;;4.60;1.52;;;;;;;22.09;33.73;100221.66;10434419;28;20053;-80
2022/05/21 16:42:45;;;;;;;7.97;1.90;;;;;;;21.93;34.22;100227.69;10437982;28;20084;-80
2022/05/21 16:47:52;;;;;;;5.55;1.63;;;;;;;21.80;33.41;100216.63;10452950;28;20061;-80
2022/05/21 16:52:54;;;;;;;5.38;1.70;;;;;;;21.76;34.56;100210.75;10436298;28;20132;-79
2022/05/21 16:58:03;;;;;;;5.93;1.70;;;;;;;21.43;34.66;100206.22;10431579;28;20048;-81
2022/05/21 17:03:05;;;;;;;8.45;1.80;;;;;;;21.63;34.83;100196.19;10436343;28;20095;-80
2022/05/21 17:08:08;;;;;;;6.60;1.73;;;;;;;21.79;34.48;100190.97;10434901;28;20053;-80
2022/05/21 17:13:14;;;;;;;5.20;1.52;;;;;;;21.46;34.48;100191.72;10428645;28;20206;-80
2022/05/21 17:18:16;;;;;;;5.13;1.65;;;;;;;21.13;35.11;100181.78;10434822;28;20513;-80
2022/05/21 17:23:19;;;;;;;7.95;1.80;;;;;;;20.80;35.49;100184.16;10433798;28;20048;-79
2022/05/21 17:33:44;;;;;;;4.68;1.60;;;;;;;20.48;36.18;100172.31;10425305;28;20493;-81
2022/05/21 17:38:50;;;;;;;7.18;1.70;;;;;;;20.37;36.00;100168.03;10442272;28;20049;-81
2022/05/21 17:43:52;;;;;;;5.47;1.40;;;;;;;20.12;36.91;100168.69;10422652;28;20064;-81
2022/05/21 17:48:56;;;;;;;4.82;1.60;;;;;;;20.06;37.39;100171.94;10423420;28;20159;-81
2022/05/21 17:53:58;;;;;;;6.60;1.75;;;;;;;20.07;36.70;100170.97;10450318;28;20088;-81
2022/05/21 17:59:00;;;;;;;6.22;1.80;;;;;;;19.95;36.86;100169.47;10436848;28;20180;-81
2022/05/21 18:04:03;;;;;;;7.38;1.73;;;;;;;20.09;38.70;100175.13;10438313;28;20084;-80
2022/05/21 18:09:05;;;;;;;8.32;1.58;;;;;;;20.14;39.10;100172.03;10435607;28;20081;-81
2022/05/21 18:14:12;;;;;;;6.88;1.83;;;;;;;19.96;37.73;100168.47;10428927;28;20048;-81
2022/05/21 18:19:20;;;;;;;6.63;1.70;;;;;;;19.85;38.31;100166.00;10436940;28;20413;-81
2022/05/21 18:24:24;;;;;;;6.00;2.13;;;;;;;19.77;39.39;100179.13;10437022;28;20076;-81
2022/05/21 18:29:26;;;;;;;4.15;1.60;;;;;;;19.63;40.88;100180.41;10435957;28;20102;-81
2022/05/21 18:34:28;;;;;;;6.43;2.10;;;;;;;19.54;42.29;100180.44;10433159;28;20080;-82
2022/05/21 18:39:30;;;;;;;7.88;2.00;;;;;;;19.41;43.74;100183.41;10438136;28;20079;-82
2022/05/21 18:44:32;;;;;;;5.30;1.80;;;;;;;19.23;43.96;100180.63;10437092;28;20612;-82
2022/05/21 18:49:34;;;;;;;5.72;1.70;;;;;;;19.09;44.63;100185.53;10432364;28;20131;-82
2022/05/21 18:54:36;;;;;;;5.95;1.80;;;;;;;19.00;45.53;100191.59;10436438;28;20423;-82
2022/05/21 18:59:38;;;;;;;4.22;1.55;;;;;;;18.83;45.80;100192.31;10434053;28;20046;-82
2022/05/21 19:04:45;;;;;;;4.15;1.75;;;;;;;18.66;46.36;100191.16;10436016;28;20092;-82
2022/05/21 19:09:47;;;;;;;7.20;1.70;;;;;;;18.50;47.19;100185.56;10436447;28;20049;-82
2022/05/21 19:14:48;;;;;;;6.03;1.88;;;;;;;18.27;47.88;100184.94;10433640;28;20073;-83
2022/05/21 19:19:50;;;;;;;6.18;2.17;;;;;;;18.18;48.05;100190.16;10434921;28;20102;-83
2022/05/21 19:24:52;;;;;;;5.05;1.90;;;;;;;18.07;47.97;100188.44;10431761;28;20048;-82
2022/05/21 19:29:54;;;;;;;7.20;1.83;;;;;;;18.04;48.50;100204.56;10430374;28;20049;-83
2022/05/21 19:34:56;;;;;;;7.15;1.98;;;;;;;17.90;48.86;100202.28;10433804;28;20053;-83
2022/05/21 19:45:18;;;;;;;5.97;2.42;;;;;;;17.62;49.86;100203.78;10434601;28;20122;-83
2022/05/21 19:50:22;;;;;;;7.28;2.00;;;;;;;17.55;49.99;100207.91;10434106;28;20077;-83
2022/05/21 19:55:25;;;;;;;5.03;1.70;;;;;;;17.49;50.72;100218.16;10434981;28;20102;-82
2022/05/21 20:00:27;;;;;;;7.18;2.17;;;;;;;17.41;50.71;100218.81;10432962;28;20392;-81
2022/05/21 20:05:29;;;;;;;7.07;2.10;;;;;;;17.19;51.32;100229.47;10430142;28;20486;-81
2022/05/21 20:10:31;;;;;;;8.77;2.17;;;;;;;17.07;51.75;100229.63;10431013;28;20513;-81
2022/05/21 20:15:35;;;;;;;6.28;2.08;;;;;;;16.93;52.26;100220.19;10431650;28;20417;-81
2022/05/21 20:20:38;;;;;;;9.77;2.25;;;;;;;16.78;52.88;100227.53;10433939;28;20080;-80
2022/05/21 20:25:41;;;;;;;5.97;2.35;;;;;;;16.52;53.68;100220.88;10434617;28;21108;-80
2022/05/21 20:30:43;;;;;;;5.40;2.28;;;;;;;16.32;53.95;100229.50;10430358;28;20045;-80
2022/05/21 20:35:46;;;;;;;8.35;2.03;;;;;;;16.08;54.32;100220.88;10436556;28;20049;-80
2022/05/21 20:40:51;;;;;;;6.22;2.20;;;;;;;15.99;54.72;100221.56;10439999;28;20126;-80
2022/05/21 20:45:53;;;;;;;8.55;2.30;;;;;;;15.77;55.38;100221.56;10451310;28;20494;-80
2022/05/21 20:50:55;;;;;;;7.68;2.40;;;;;;;15.55;55.77;100232.88;10438481;28;20052;-80
2022/05/21 20:55:57;;;;;;;6.65;2.33;;;;;;;15.35;55.99;100223.81;10442977;28;20115;-80
2022/05/21 21:00:58;;;;;;;6.35;2.53;;;;;;;15.22;56.06;100230.09;10441055;28;20683;-80
2022/05/21 21:06:02;;;;;;;7.85;2.40;;;;;;;15.10;56.68;100234.47;10441146;28;20186;-80
2022/05/21 21:11:04;;;;;;;8.73;2.55;;;;;;;15.06;56.70;100245.38;10438648;28;20107;-81
2022/05/21 21:16:07;;;;;;;9.82;2.80;;;;;;;15.00;57.31;100245.81;10439933;28;20085;-81
2022/05/21 21:21:09;;;;;;;6.13;2.47;;;;;;;14.86;57.29;100248.59;10438768;28;20053;-80
2022/05/21 21:26:11;;;;;;;6.63;2.40;;;;;;;14.72;57.54;100256.63;10439352;28;20053;-80
2022/05/21 21:31:12;;;;;;;6.15;2.20;;;;;;;14.61;57.93;100256.56;10437954;28;20068;-80
2022/05/21 21:36:14;;;;;;;9.65;2.60;;;;;;;14.49;58.08;100248.59;10438680;28;20452;-80
2022/05/21 21:41:17;;;;;;;11.18;2.60;;;;;;;14.39;58.10;100234.38;10436170;28;20052;-80
2022/05/21 21:46:18;;;;;;;7.68;2.60;;;;;;;14.27;58.08;100240.50;10439402;28;20060;-80
2022/05/21 21:51:20;;;;;;;7.32;2.50;;;;;;;14.13;58.69;100237.13;10439134;28;20887;-80
2022/05/21 21:56:22;;;;;;;7.80;2.92;;;;;;;14.10;58.74;100230.31;10439342;28;20140;-80
2022/05/21 22:01:24;;;;;;;6.47;2.20;;;;;;;14.06;58.71;100226.22;10436637;28;20098;-80
2022/05/21 22:06:27;;;;;;;7.40;2.47;;;;;;;14.01;59.12;100220.44;10434263;28;20063;-80
2022/05/21 22:11:29;;;;;;;11.15;2.50;;;;;;;14.01;59.15;100228.31;10433860;28;20060;-80
2022/05/21 22:16:30;;;;;;;8.00;2.70;;;;;;;14.01;58.72;100222.22;10431355;28;20142;-80
2022/05/21 22:21:32;;;;;;;10.23;2.67;;;;;;;13.86;58.97;100220.66;10428628;28;21025;-79
2022/05/21 22:26:36;;;;;;;9.02;2.65;;;;;;;13.66;59.26;100206.22;10433896;28;20057;-80
2022/05/21 22:31:39;;;;;;;6.80;2.50;;;;;;;13.59;59.38;100202.34;10427931;28;20529;-80
2022/05/21 22:36:41;;;;;;;6.32;2.60;;;;;;;13.55;59.50;100203.50;10425391;28;20052;-80
2022/05/21 22:41:43;;;;;;;6.07;2.85;;;;;;;13.48;59.48;100203.06;10446859;28;20052;-80
2022/05/21 22:46:46;;;;;;;8.02;2.70;;;;;;;13.36;59.83;100205.63;10429451;28;20048;-79
2022/05/21 22:51:48;;;;;;;6.55;2.40;;;;;;;13.23;60.06;100194.28;10427132;28;20049;-78
2022/05/21 22:56:51;;;;;;;8.77;2.65;;;;;;;13.12;60.31;100188.88;10425925;28;20152;-78
2022/05/21 23:01:53;;;;;;;7.30;2.63;;;;;;;13.21;60.29;100183.84;10421530;28;20052;-79
2022/05/21 23:06:55;;;;;;;6.45;2.50;;;;;;;13.18;60.22;100193.72;10427225;28;20138;-79
2022/05/21 23:11:57;;;;;;;7.07;2.65;;;;;;;13.02;60.16;100193.06;10431604;28;20075;-78
2022/05/21 23:22:25;;;;;;;9.45;2.80;;;;;;;12.77;60.85;100191.19;10429421;28;20053;-78
2022/05/21 23:27:27;;;;;;;10.60;3.00;;;;;;;12.68;61.18;100197.84;10422853;28;20122;-78
2022/05/21 23:32:29;;;;;;;8.73;2.97;;;;;;;12.60;61.23;100194.88;10424438;28;20061;-78
2022/05/21 23:37:32;;;;;;;8.50;3.20;;;;;;;12.57;61.56;100186.38;10423871;28;20146;-79
2022/05/21 23:42:35;;;;;;;10.48;3.80;;;;;;;12.54;61.52;100191.78;10424922;28;20057;-78
2022/05/21 23:47:36;;;;;;;6.80;2.80;;;;;;;12.57;61.72;100179.34;10424693;28;20052;-78
2022/05/21 23:52:39;;;;;;;8.63;3.50;;;;;;;12.55;61.74;100175.97;10426514;28;20134;-77
2022/05/21 23:57:59;;;;;;;11.80;3.03;;;;;;;12.55;61.73;100160.25;10425435;28;20829;-78
